Buoy 51523

sailwx.info

Track history (hours):
 
Tides and Currents Weather Stations Pressure Air Temp Water Temp Dewpoint Dewpoint Depression Visibility Wind Speed Wind Dir Waves Ship Positions

Drifting buoy 51523

Last reported at 2014-Nov-24 20:30 UTC. Time now 2014-Nov-24 21:36 UTC.
Position N 05°35' W 153°48'.

Water temperature 28.7 ° C

Date/timePositionNaut miles runAvg speedWind from/ knotsBaromVisibWave heightAir tempDewpointWater temp
2014-Nov-24 20:30N 05°35' W 153°48'1 2.4 28.7
2014-Nov-24 20:15N 05°35' W 153°48'2 3.4 28.7
2014-Nov-24 19:45N 05°34' W 153°47'0 0.0 28.7
2014-Nov-24 19:30N 05°34' W 153°47'1 1.1 28.7
2014-Nov-24 18:45N 05°34' W 153°47'0 0.0 28.7
2014-Nov-24 16:15N 05°34' W 153°47'0 0.0 28.7
2014-Nov-24 16:00N 05°34' W 153°47'0 0.0 28.7
2014-Nov-24 15:45N 05°34' W 153°47'2 2.4 28.7
2014-Nov-24 14:45N 05°31' W 153°47'0 1.0 28.7
2014-Nov-24 14:30N 05°31' W 153°47'0 0.0 28.7
2014-Nov-24 14:15N 05°31' W 153°47'0 0.2 28.7
2014-Nov-24 12:45N 05°31' W 153°47'3 2.3 28.7
2014-Nov-24 11:15N 05°28' W 153°49'0 0.0 28.7
2014-Nov-24 11:00N 05°28' W 153°49'0 0.0 28.7
2014-Nov-24 08:45N 05°28' W 153°49'2 6.8 28.8
2014-Nov-24 08:30N 05°27' W 153°50'1 0.8 28.8
2014-Nov-24 07:45N 05°26' W 153°50'1 0.8 28.8
2014-Nov-24 07:00N 05°26' W 153°51'0 0.0 28.9
2014-Nov-24 06:00N 05°26' W 153°51'3 1.3 28.9
2014-Nov-24 03:45N 05°23' W 153°51'1 3.4 29.0
2014-Nov-24 03:30N 05°23' W 153°52'0 0.0 29.1
2014-Nov-24 03:15N 05°23' W 153°52'2 1.9 29.1
2014-Nov-24 02:00N 05°23' W 153°49'0 0.0 29.3
2014-Nov-24 01:45N 05°23' W 153°49'3 2.0 29.3
2014-Nov-24 00:15N 05°21' W 153°52'0 0.0 29.1
2014-Nov-24 00:00N 05°21' W 153°52'4 1.1 29.1
2014-Nov-23 20:45N 05°17' W 153°52'1 1.1 28.8
2014-Nov-23 20:00N 05°17' W 153°53'1 3.4 28.7
2014-Nov-23 19:45N 05°17' W 153°52'1 2.7 28.7
2014-Nov-23 19:15N 05°17' W 153°53'310.7 28.7
2014-Nov-23 19:00N 05°14' W 153°55'0 0.0 28.7
2014-Nov-23 18:15N 05°14' W 153°55'1 0.9 28.7
2014-Nov-23 16:45N 05°13' W 153°54'0 0.0 28.7
2014-Nov-23 16:15N 05°13' W 153°54'0 0.0 28.7
2014-Nov-23 15:15N 05°13' W 153°54'1 2.4 28.8
2014-Nov-23 15:00N 05°13' W 153°55'2 8.6 28.8
2014-Nov-23 14:45N 05°11' W 153°56'0 0.0 28.8
2014-Nov-23 14:30N 05°11' W 153°56'0 0.0 28.8
2014-Nov-23 13:00N 05°11' W 153°56'0 0.0 28.9
2014-Nov-23 12:45N 05°11' W 153°56'2 1.7 28.9
2014-Nov-23 11:30N 05°10' W 153°57'416.0 28.8
2014-Nov-23 11:15N 05°08' W 154°01'0 0.0 28.8
2014-Nov-23 09:00N 05°08' W 154°01'0 0.0 28.8
2014-Nov-23 08:15N 05°08' W 154°01'2 6.8 28.9
2014-Nov-23 08:00N 05°07' W 154°02'0 0.0 29.0
2014-Nov-23 07:30N 05°07' W 154°02'2 7.2 29.0
2014-Nov-23 07:15N 05°07' W 154°00'4 5.8 29.0
2014-Nov-23 06:30N 05°03' W 154°02'0 0.0 29.1
2014-Nov-23 05:45N 05°03' W 154°02'1 0.8 29.2
2014-Nov-23 04:15N 05°03' W 154°04'0 0.0 29.4
2014-Nov-23 04:00N 05°03' W 154°04'310.2 29.6
2014-Nov-23 03:45N 05°01' W 154°05'0 0.0 29.8
2014-Nov-23 03:30N 05°01' W 154°05'1 1.0 29.8
2014-Nov-23 02:15N 05°00' W 154°05'0 0.0 30.0
2014-Nov-23 02:00N 05°00' W 154°05'5 2.8 29.9
2014-Nov-23 00:15N 04°58' W 154°10'0 0.0 30.1
2014-Nov-22 22:30N 04°58' W 154°10'1 0.9 29.5
2014-Nov-22 21:00N 04°56' W 154°09'1 1.8 29.2
2014-Nov-22 20:15N 04°56' W 154°10'3 4.5 28.9
2014-Nov-22 19:30N 04°54' W 154°13'312.9 28.7
2014-Nov-22 19:15N 04°56' W 154°10'3 6.5 28.6
2014-Nov-22 18:45N 04°53' W 154°13'0 0.0 28.6
2014-Nov-22 18:30N 04°53' W 154°13'1 1.1 28.6
2014-Nov-22 17:15N 04°52' W 154°13'0 0.0 28.5
2014-Nov-22 15:45N 04°52' W 154°13'1 2.4 28.5
2014-Nov-22 15:30N 04°52' W 154°14'0 0.0 28.5
2014-Nov-22 15:15N 04°52' W 154°14'0 0.0 28.5
2014-Nov-22 15:00N 04°52' W 154°14'2 1.1 28.5
2014-Nov-22 13:30N 04°51' W 154°15'0 0.0 28.5
2014-Nov-22 13:15N 04°51' W 154°15'0 0.0 28.5
2014-Nov-22 13:00N 04°51' W 154°15'5 3.4 28.5
2014-Nov-22 11:30N 04°48' W 154°19'0 0.0 28.5
2014-Nov-22 11:15N 04°48' W 154°19'1 0.3 28.5
2014-Nov-22 08:30N 04°47' W 154°20'1 0.8 28.5
2014-Nov-22 07:45N 04°47' W 154°20'0 0.0 28.5
2014-Nov-22 07:30N 04°47' W 154°20'0 0.0 28.6
2014-Nov-22 07:00N 04°47' W 154°20'312.0 28.6
2014-Nov-22 06:45N 04°45' W 154°22'0 0.0 28.6
2014-Nov-22 04:45N 04°45' W 154°22'0 0.0 28.6
2014-Nov-22 04:30N 04°45' W 154°22'0 0.0 28.6
2014-Nov-22 04:15N 04°45' W 154°22'2 7.6 28.6
2014-Nov-22 04:00N 04°44' W 154°24'0 0.0 28.6
2014-Nov-22 03:00N 04°44' W 154°24'0 0.8 28.6
2014-Nov-22 02:30N 04°44' W 154°24'1 6.0 28.6
2014-Nov-22 02:15N 04°43' W 154°25'2 1.3 28.6
2014-Nov-22 00:30N 04°41' W 154°26'0 0.0 28.6
2014-Nov-22 00:15N 04°41' W 154°26'1 0.9 28.6
2014-Nov-21 22:45N 04°42' W 154°28'0 0.0 28.6
2014-Nov-21 20:45N 04°42' W 154°28'0 0.0 28.6
2014-Nov-21 20:30N 04°42' W 154°28'1 1.1 28.6
2014-Nov-21 19:45N 04°41' W 154°28'4 4.9 28.6
2014-Nov-21 19:00N 04°42' W 154°32'0 0.0 28.6
2014-Nov-21 18:45N 04°42' W 154°32'1 0.5 28.6
2014-Nov-21 16:15N 04°42' W 154°33'0 0.0 28.6
2014-Nov-21 16:00N 04°42' W 154°33'0 0.6 28.6
2014-Nov-21 15:30N 04°42' W 154°33'0 1.6 28.7
2014-Nov-21 15:15N 04°42' W 154°32'0 0.0 28.6
2014-Nov-21 15:00N 04°42' W 154°32'2 1.2 28.6
2014-Nov-21 13:30N 04°42' W 154°34'0 0.0 28.6
2014-Nov-21 13:15N 04°42' W 154°34'1 0.9 28.6
2014-Nov-21 11:45N 04°43' W 154°35'0 0.0 28.7
2014-Nov-21 11:30N 04°43' W 154°35'5 1.9 28.7
2014-Nov-21 09:00N 04°45' W 154°40'0 0.0 28.7
2014-Nov-21 08:45N 04°45' W 154°40'0 0.0 28.7
2014-Nov-21 08:00N 04°45' W 154°40'1 1.8 28.8
2014-Nov-21 07:15N 04°46' W 154°40'0 0.0 28.8
2014-Nov-21 07:00N 04°46' W 154°40'0 0.0 28.8
2014-Nov-21 06:30N 04°46' W 154°40'2 7.2 28.8
2014-Nov-21 06:15N 04°46' W 154°42'0 0.0 28.8
2014-Nov-21 05:00N 04°46' W 154°42'1 1.2 28.8
2014-Nov-21 04:30N 04°47' W 154°42'2 2.4 28.8
2014-Nov-21 03:45N 04°47' W 154°44'0 0.0 28.8
2014-Nov-21 03:30N 04°47' W 154°44'0 0.0 28.9
2014-Nov-21 02:45N 04°47' W 154°44'1 5.4 28.9
2014-Nov-21 02:30N 04°48' W 154°44'0 0.0 28.9
2014-Nov-21 00:45N 04°48' W 154°44'2 6.8 28.9
2014-Nov-21 00:30N 04°49' W 154°46'2 1.7 28.9
2014-Nov-20 23:15N 04°50' W 154°47'0 0.0 28.8
2014-Nov-20 23:00N 04°50' W 154°47'0 0.0 28.8
2014-Nov-20 21:15N 04°50' W 154°47'0 0.0 28.8
2014-Nov-20 21:00N 04°50' W 154°47'2 3.4 28.7
2014-Nov-20 20:30N 04°52' W 154°49'2 6.8 28.8
2014-Nov-20 20:15N 04°50' W 154°47'4 5.4 28.7
2014-Nov-20 19:30N 04°52' W 154°51'   28.7
Track history (hours):
 
Tides and Currents Weather Stations Pressure Air Temp Water Temp Dewpoint Dewpoint Depression Visibility Wind Speed Wind Dir Waves Ship Positions

Drifting buoy 51523

Last reported at 2014-Nov-24 20:30 UTC. Time now 2014-Nov-24 21:36 UTC.
Position N 05°35' W 153°48'.

Water temperature 28.7 ° C

Date/timePositionNaut miles runAvg speedWind from/ knotsBaromVisibWave heightAir tempDewpointWater temp
2014-Nov-24 20:30N 05°35' W 153°48'1 2.4 28.7
2014-Nov-24 20:15N 05°35' W 153°48'2 3.4 28.7
2014-Nov-24 19:45N 05°34' W 153°47'0 0.0 28.7
2014-Nov-24 19:30N 05°34' W 153°47'1 1.1 28.7
2014-Nov-24 18:45N 05°34' W 153°47'0 0.0 28.7
2014-Nov-24 16:15N 05°34' W 153°47'0 0.0 28.7
2014-Nov-24 16:00N 05°34' W 153°47'0 0.0 28.7
2014-Nov-24 15:45N 05°34' W 153°47'2 2.4 28.7
2014-Nov-24 14:45N 05°31' W 153°47'0 1.0 28.7
2014-Nov-24 14:30N 05°31' W 153°47'0 0.0 28.7
2014-Nov-24 14:15N 05°31' W 153°47'0 0.2 28.7
2014-Nov-24 12:45N 05°31' W 153°47'3 2.3 28.7
2014-Nov-24 11:15N 05°28' W 153°49'0 0.0 28.7
2014-Nov-24 11:00N 05°28' W 153°49'0 0.0 28.7
2014-Nov-24 08:45N 05°28' W 153°49'2 6.8 28.8
2014-Nov-24 08:30N 05°27' W 153°50'1 0.8 28.8
2014-Nov-24 07:45N 05°26' W 153°50'1 0.8 28.8
2014-Nov-24 07:00N 05°26' W 153°51'0 0.0 28.9
2014-Nov-24 06:00N 05°26' W 153°51'3 1.3 28.9
2014-Nov-24 03:45N 05°23' W 153°51'1 3.4 29.0
2014-Nov-24 03:30N 05°23' W 153°52'0 0.0 29.1
2014-Nov-24 03:15N 05°23' W 153°52'2 1.9 29.1
2014-Nov-24 02:00N 05°23' W 153°49'0 0.0 29.3
2014-Nov-24 01:45N 05°23' W 153°49'3 2.0 29.3
2014-Nov-24 00:15N 05°21' W 153°52'0 0.0 29.1
2014-Nov-24 00:00N 05°21' W 153°52'4 1.1 29.1
2014-Nov-23 20:45N 05°17' W 153°52'1 1.1 28.8
2014-Nov-23 20:00N 05°17' W 153°53'1 3.4 28.7
2014-Nov-23 19:45N 05°17' W 153°52'1 2.7 28.7
2014-Nov-23 19:15N 05°17' W 153°53'310.7 28.7
2014-Nov-23 19:00N 05°14' W 153°55'0 0.0 28.7
2014-Nov-23 18:15N 05°14' W 153°55'1 0.9 28.7
2014-Nov-23 16:45N 05°13' W 153°54'0 0.0 28.7
2014-Nov-23 16:15N 05°13' W 153°54'0 0.0 28.7
2014-Nov-23 15:15N 05°13' W 153°54'1 2.4 28.8
2014-Nov-23 15:00N 05°13' W 153°55'2 8.6 28.8
2014-Nov-23 14:45N 05°11' W 153°56'0 0.0 28.8
2014-Nov-23 14:30N 05°11' W 153°56'0 0.0 28.8
2014-Nov-23 13:00N 05°11' W 153°56'0 0.0 28.9
2014-Nov-23 12:45N 05°11' W 153°56'2 1.7 28.9
2014-Nov-23 11:30N 05°10' W 153°57'416.0 28.8
2014-Nov-23 11:15N 05°08' W 154°01'0 0.0 28.8
2014-Nov-23 09:00N 05°08' W 154°01'0 0.0 28.8
2014-Nov-23 08:15N 05°08' W 154°01'2 6.8 28.9
2014-Nov-23 08:00N 05°07' W 154°02'0 0.0 29.0
2014-Nov-23 07:30N 05°07' W 154°02'2 7.2 29.0
2014-Nov-23 07:15N 05°07' W 154°00'4 5.8 29.0
2014-Nov-23 06:30N 05°03' W 154°02'0 0.0 29.1
2014-Nov-23 05:45N 05°03' W 154°02'1 0.8 29.2
2014-Nov-23 04:15N 05°03' W 154°04'0 0.0 29.4
2014-Nov-23 04:00N 05°03' W 154°04'310.2 29.6
2014-Nov-23 03:45N 05°01' W 154°05'0 0.0 29.8
2014-Nov-23 03:30N 05°01' W 154°05'1 1.0 29.8
2014-Nov-23 02:15N 05°00' W 154°05'0 0.0 30.0
2014-Nov-23 02:00N 05°00' W 154°05'5 2.8 29.9
2014-Nov-23 00:15N 04°58' W 154°10'0 0.0 30.1
2014-Nov-22 22:30N 04°58' W 154°10'1 0.9 29.5
2014-Nov-22 21:00N 04°56' W 154°09'1 1.8 29.2
2014-Nov-22 20:15N 04°56' W 154°10'3 4.5 28.9
2014-Nov-22 19:30N 04°54' W 154°13'312.9 28.7
2014-Nov-22 19:15N 04°56' W 154°10'3 6.5 28.6
2014-Nov-22 18:45N 04°53' W 154°13'0 0.0 28.6
2014-Nov-22 18:30N 04°53' W 154°13'1 1.1 28.6
2014-Nov-22 17:15N 04°52' W 154°13'0 0.0 28.5
2014-Nov-22 15:45N 04°52' W 154°13'1 2.4 28.5
2014-Nov-22 15:30N 04°52' W 154°14'0 0.0 28.5
2014-Nov-22 15:15N 04°52' W 154°14'0 0.0 28.5
2014-Nov-22 15:00N 04°52' W 154°14'2 1.1 28.5
2014-Nov-22 13:30N 04°51' W 154°15'0 0.0 28.5
2014-Nov-22 13:15N 04°51' W 154°15'0 0.0 28.5
2014-Nov-22 13:00N 04°51' W 154°15'5 3.4 28.5
2014-Nov-22 11:30N 04°48' W 154°19'0 0.0 28.5
2014-Nov-22 11:15N 04°48' W 154°19'1 0.3 28.5
2014-Nov-22 08:30N 04°47' W 154°20'1 0.8 28.5
2014-Nov-22 07:45N 04°47' W 154°20'0 0.0 28.5
2014-Nov-22 07:30N 04°47' W 154°20'0 0.0 28.6
2014-Nov-22 07:00N 04°47' W 154°20'312.0 28.6
2014-Nov-22 06:45N 04°45' W 154°22'0 0.0 28.6
2014-Nov-22 04:45N 04°45' W 154°22'0 0.0 28.6
2014-Nov-22 04:30N 04°45' W 154°22'0 0.0 28.6
2014-Nov-22 04:15N 04°45' W 154°22'2 7.6 28.6
2014-Nov-22 04:00N 04°44' W 154°24'0 0.0 28.6
2014-Nov-22 03:00N 04°44' W 154°24'0 0.8 28.6
2014-Nov-22 02:30N 04°44' W 154°24'1 6.0 28.6
2014-Nov-22 02:15N 04°43' W 154°25'2 1.3 28.6
2014-Nov-22 00:30N 04°41' W 154°26'0 0.0 28.6
2014-Nov-22 00:15N 04°41' W 154°26'1 0.9 28.6
2014-Nov-21 22:45N 04°42' W 154°28'0 0.0 28.6
2014-Nov-21 20:45N 04°42' W 154°28'0 0.0 28.6
2014-Nov-21 20:30N 04°42' W 154°28'1 1.1 28.6
2014-Nov-21 19:45N 04°41' W 154°28'4 4.9 28.6
2014-Nov-21 19:00N 04°42' W 154°32'0 0.0 28.6
2014-Nov-21 18:45N 04°42' W 154°32'1 0.5 28.6
2014-Nov-21 16:15N 04°42' W 154°33'0 0.0 28.6
2014-Nov-21 16:00N 04°42' W 154°33'0 0.6 28.6
2014-Nov-21 15:30N 04°42' W 154°33'0 1.6 28.7
2014-Nov-21 15:15N 04°42' W 154°32'0 0.0 28.6
2014-Nov-21 15:00N 04°42' W 154°32'2 1.2 28.6
2014-Nov-21 13:30N 04°42' W 154°34'0 0.0 28.6
2014-Nov-21 13:15N 04°42' W 154°34'1 0.9 28.6
2014-Nov-21 11:45N 04°43' W 154°35'0 0.0 28.7
2014-Nov-21 11:30N 04°43' W 154°35'5 1.9 28.7
2014-Nov-21 09:00N 04°45' W 154°40'0 0.0 28.7
2014-Nov-21 08:45N 04°45' W 154°40'0 0.0 28.7
2014-Nov-21 08:00N 04°45' W 154°40'1 1.8 28.8
2014-Nov-21 07:15N 04°46' W 154°40'0 0.0 28.8
2014-Nov-21 07:00N 04°46' W 154°40'0 0.0 28.8
2014-Nov-21 06:30N 04°46' W 154°40'2 7.2 28.8
2014-Nov-21 06:15N 04°46' W 154°42'0 0.0 28.8
2014-Nov-21 05:00N 04°46' W 154°42'1 1.2 28.8
2014-Nov-21 04:30N 04°47' W 154°42'2 2.4 28.8
2014-Nov-21 03:45N 04°47' W 154°44'0 0.0 28.8
2014-Nov-21 03:30N 04°47' W 154°44'0 0.0 28.9
2014-Nov-21 02:45N 04°47' W 154°44'1 5.4 28.9
2014-Nov-21 02:30N 04°48' W 154°44'0 0.0 28.9
2014-Nov-21 00:45N 04°48' W 154°44'2 6.8 28.9
2014-Nov-21 00:30N 04°49' W 154°46'2 1.7 28.9
2014-Nov-20 23:15N 04°50' W 154°47'0 0.0 28.8
2014-Nov-20 23:00N 04°50' W 154°47'0 0.0 28.8
2014-Nov-20 21:15N 04°50' W 154°47'0 0.0 28.8
2014-Nov-20 21:00N 04°50' W 154°47'2 3.4 28.7
2014-Nov-20 20:30N 04°52' W 154°49'2 6.8 28.8
2014-Nov-20 20:15N 04°50' W 154°47'4 5.4 28.7
2014-Nov-20 19:30N 04°52' W 154°51'   28.7

Dump ship's entire track history